sensor_id;sensor_type;location;lat;lon;timestamp;P1;durP1;ratioP1;P2;durP2;ratioP2
19095;SDS011;9680;52.520;13.332;2022-10-29T00:00:21;14.05;;;4.03;;
19095;SDS011;9680;52.520;13.332;2022-10-29T00:02:47;11.98;;;3.75;;
19095;SDS011;9680;52.520;13.332;2022-10-29T00:05:12;13.93;;;3.65;;
19095;SDS011;9680;52.520;13.332;2022-10-29T00:07:38;14.35;;;3.42;;
19095;SDS011;9680;52.520;13.332;2022-10-29T00:10:04;12.80;;;3.75;;
19095;SDS011;9680;52.520;13.332;2022-10-29T00:12:29;12.65;;;3.63;;
19095;SDS011;9680;52.520;13.332;2022-10-29T00:14:55;21.17;;;3.45;;
19095;SDS011;9680;52.520;13.332;2022-10-29T00:17:20;17.40;;;4.25;;
19095;SDS011;9680;52.520;13.332;2022-10-29T00:19:46;10.02;;;3.22;;
19095;SDS011;9680;52.520;13.332;2022-10-29T00:22:11;9.88;;;3.15;;
19095;SDS011;9680;52.520;13.332;2022-10-29T00:24:37;11.23;;;3.50;;
19095;SDS011;9680;52.520;13.332;2022-10-29T00:27:02;13.48;;;4.13;;
19095;SDS011;9680;52.520;13.332;2022-10-29T00:29:28;9.65;;;3.90;;
19095;SDS011;9680;52.520;13.332;2022-10-29T00:31:53;19.52;;;3.90;;
19095;SDS011;9680;52.520;13.332;2022-10-29T00:34:19;12.43;;;3.60;;
19095;SDS011;9680;52.520;13.332;2022-10-29T00:36:44;16.80;;;3.80;;
19095;SDS011;9680;52.520;13.332;2022-10-29T00:39:16;11.13;;;3.65;;
19095;SDS011;9680;52.520;13.332;2022-10-29T00:41:42;11.80;;;3.42;;
19095;SDS011;9680;52.520;13.332;2022-10-29T00:46:54;15.15;;;3.33;;
19095;SDS011;9680;52.520;13.332;2022-10-29T00:49:30;16.73;;;3.58;;
19095;SDS011;9680;52.520;13.332;2022-10-29T00:51:59;15.70;;;3.78;;
19095;SDS011;9680;52.520;13.332;2022-10-29T00:54:27;10.23;;;3.80;;
19095;SDS011;9680;52.520;13.332;2022-10-29T00:56:56;13.38;;;3.80;;
19095;SDS011;9680;52.520;13.332;2022-10-29T00:59:24;13.35;;;3.85;;
19095;SDS011;9680;52.520;13.332;2022-10-29T01:01:50;14.55;;;4.13;;
19095;SDS011;9680;52.520;13.332;2022-10-29T01:04:16;17.83;;;3.95;;
19095;SDS011;9680;52.520;13.332;2022-10-29T01:06:42;13.82;;;3.95;;
19095;SDS011;9680;52.520;13.332;2022-10-29T01:09:09;15.38;;;3.75;;
19095;SDS011;9680;52.520;13.332;2022-10-29T01:12:20;13.32;;;4.35;;
19095;SDS011;9680;52.520;13.332;2022-10-29T01:14:48;16.42;;;3.65;;
19095;SDS011;9680;52.520;13.332;2022-10-29T01:20:05;10.55;;;4.13;;
19095;SDS011;9680;52.520;13.332;2022-10-29T01:33:50;14.02;;;4.15;;
19095;SDS011;9680;52.520;13.332;2022-10-29T01:39:02;12.95;;;3.80;;
19095;SDS011;9680;52.520;13.332;2022-10-29T01:44:27;15.13;;;4.07;;
19095;SDS011;9680;52.520;13.332;2022-10-29T01:47:00;17.27;;;4.45;;
19095;SDS011;9680;52.520;13.332;2022-10-29T01:49:28;15.13;;;4.15;;
19095;SDS011;9680;52.520;13.332;2022-10-29T01:52:00;15.10;;;4.70;;
19095;SDS011;9680;52.520;13.332;2022-10-29T01:54:28;14.77;;;4.68;;
19095;SDS011;9680;52.520;13.332;2022-10-29T01:56:55;13.43;;;4.25;;
19095;SDS011;9680;52.520;13.332;2022-10-29T01:59:21;11.55;;;4.35;;
19095;SDS011;9680;52.520;13.332;2022-10-29T02:01:57;15.13;;;4.45;;
19095;SDS011;9680;52.520;13.332;2022-10-29T02:10:42;17.63;;;4.22;;
19095;SDS011;9680;52.520;13.332;2022-10-29T02:13:15;21.60;;;4.70;;
19095;SDS011;9680;52.520;13.332;2022-10-29T02:15:46;17.38;;;4.40;;
19095;SDS011;9680;52.520;13.332;2022-10-29T02:18:15;15.45;;;4.43;;
19095;SDS011;9680;52.520;13.332;2022-10-29T02:20:42;17.65;;;4.72;;
19095;SDS011;9680;52.520;13.332;2022-10-29T02:23:09;13.27;;;4.57;;
19095;SDS011;9680;52.520;13.332;2022-10-29T02:25:34;17.52;;;4.65;;
19095;SDS011;9680;52.520;13.332;2022-10-29T02:28:00;11.48;;;4.65;;
19095;SDS011;9680;52.520;13.332;2022-10-29T02:30:26;11.95;;;4.45;;
19095;SDS011;9680;52.520;13.332;2022-10-29T02:32:53;16.80;;;4.13;;
19095;SDS011;9680;52.520;13.332;2022-10-29T02:35:18;12.98;;;4.65;;
19095;SDS011;9680;52.520;13.332;2022-10-29T02:37:44;12.60;;;4.50;;
19095;SDS011;9680;52.520;13.332;2022-10-29T02:40:10;20.02;;;5.18;;
19095;SDS011;9680;52.520;13.332;2022-10-29T02:42:37;20.25;;;4.50;;
19095;SDS011;9680;52.520;13.332;2022-10-29T02:45:02;20.13;;;5.07;;
19095;SDS011;9680;52.520;13.332;2022-10-29T02:47:28;13.45;;;4.50;;
19095;SDS011;9680;52.520;13.332;2022-10-29T02:49:54;15.75;;;4.93;;
19095;SDS011;9680;52.520;13.332;2022-10-29T02:52:19;11.70;;;4.43;;
19095;SDS011;9680;52.520;13.332;2022-10-29T02:54:45;15.35;;;4.72;;
19095;SDS011;9680;52.520;13.332;2022-10-29T02:57:11;14.60;;;4.60;;
19095;SDS011;9680;52.520;13.332;2022-10-29T02:59:36;12.10;;;4.65;;
19095;SDS011;9680;52.520;13.332;2022-10-29T03:02:01;14.93;;;4.47;;
19095;SDS011;9680;52.520;13.332;2022-10-29T03:04:37;13.18;;;4.80;;
19095;SDS011;9680;52.520;13.332;2022-10-29T03:07:03;14.05;;;4.60;;
19095;SDS011;9680;52.520;13.332;2022-10-29T03:09:29;17.50;;;4.97;;
19095;SDS011;9680;52.520;13.332;2022-10-29T03:11:54;15.65;;;4.60;;
19095;SDS011;9680;52.520;13.332;2022-10-29T03:14:20;12.98;;;4.72;;
19095;SDS011;9680;52.520;13.332;2022-10-29T03:16:45;21.02;;;5.00;;
19095;SDS011;9680;52.520;13.332;2022-10-29T03:19:11;13.13;;;4.45;;
19095;SDS011;9680;52.520;13.332;2022-10-29T03:21:36;13.73;;;4.70;;
19095;SDS011;9680;52.520;13.332;2022-10-29T03:24:02;15.60;;;4.50;;
19095;SDS011;9680;52.520;13.332;2022-10-29T03:26:28;13.13;;;5.10;;
19095;SDS011;9680;52.520;13.332;2022-10-29T03:28:54;14.07;;;5.07;;
19095;SDS011;9680;52.520;13.332;2022-10-29T03:31:19;18.63;;;5.30;;
19095;SDS011;9680;52.520;13.332;2022-10-29T03:33:45;15.40;;;4.95;;
19095;SDS011;9680;52.520;13.332;2022-10-29T03:36:10;17.00;;;4.97;;
19095;SDS011;9680;52.520;13.332;2022-10-29T03:38:36;20.02;;;5.35;;
19095;SDS011;9680;52.520;13.332;2022-10-29T03:41:02;17.48;;;5.28;;
19095;SDS011;9680;52.520;13.332;2022-10-29T03:43:33;15.73;;;4.68;;
19095;SDS011;9680;52.520;13.332;2022-10-29T03:45:59;17.45;;;5.50;;
19095;SDS011;9680;52.520;13.332;2022-10-29T03:48:24;17.02;;;5.30;;
19095;SDS011;9680;52.520;13.332;2022-10-29T03:50:54;12.20;;;4.57;;
19095;SDS011;9680;52.520;13.332;2022-10-29T03:53:20;12.68;;;5.05;;
19095;SDS011;9680;52.520;13.332;2022-10-29T03:55:46;14.90;;;4.90;;
19095;SDS011;9680;52.520;13.332;2022-10-29T03:58:14;13.13;;;4.43;;
19095;SDS011;9680;52.520;13.332;2022-10-29T04:00:40;20.88;;;5.53;;
19095;SDS011;9680;52.520;13.332;2022-10-29T04:03:05;18.33;;;5.10;;
19095;SDS011;9680;52.520;13.332;2022-10-29T04:05:31;22.08;;;5.07;;
19095;SDS011;9680;52.520;13.332;2022-10-29T04:07:56;18.42;;;5.32;;
19095;SDS011;9680;52.520;13.332;2022-10-29T04:10:22;20.65;;;5.78;;
19095;SDS011;9680;52.520;13.332;2022-10-29T04:12:47;14.77;;;5.47;;
19095;SDS011;9680;52.520;13.332;2022-10-29T04:15:13;23.08;;;5.25;;
19095;SDS011;9680;52.520;13.332;2022-10-29T04:17:38;18.67;;;5.65;;
19095;SDS011;9680;52.520;13.332;2022-10-29T04:20:04;20.50;;;5.18;;
19095;SDS011;9680;52.520;13.332;2022-10-29T04:22:29;12.57;;;4.88;;
19095;SDS011;9680;52.520;13.332;2022-10-29T04:24:55;16.83;;;5.55;;
19095;SDS011;9680;52.520;13.332;2022-10-29T04:27:20;17.63;;;5.13;;
19095;SDS011;9680;52.520;13.332;2022-10-29T04:29:46;22.13;;;5.07;;
19095;SDS011;9680;52.520;13.332;2022-10-29T04:32:11;16.45;;;5.30;;
19095;SDS011;9680;52.520;13.332;2022-10-29T04:34:37;16.45;;;5.93;;
19095;SDS011;9680;52.520;13.332;2022-10-29T04:37:02;20.27;;;5.57;;
19095;SDS011;9680;52.520;13.332;2022-10-29T04:39:28;14.02;;;5.20;;
19095;SDS011;9680;52.520;13.332;2022-10-29T04:41:53;21.92;;;5.93;;
19095;SDS011;9680;52.520;13.332;2022-10-29T04:44:18;16.17;;;4.95;;
19095;SDS011;9680;52.520;13.332;2022-10-29T04:46:44;20.50;;;5.25;;
19095;SDS011;9680;52.520;13.332;2022-10-29T04:49:09;12.43;;;5.40;;
19095;SDS011;9680;52.520;13.332;2022-10-29T04:51:35;16.23;;;5.38;;
19095;SDS011;9680;52.520;13.332;2022-10-29T04:54:00;19.02;;;5.40;;
19095;SDS011;9680;52.520;13.332;2022-10-29T04:56:26;12.50;;;4.90;;
19095;SDS011;9680;52.520;13.332;2022-10-29T04:58:53;26.08;;;5.40;;
19095;SDS011;9680;52.520;13.332;2022-10-29T05:01:18;20.55;;;5.88;;
19095;SDS011;9680;52.520;13.332;2022-10-29T05:03:44;14.80;;;7.38;;
19095;SDS011;9680;52.520;13.332;2022-10-29T05:06:09;16.67;;;5.72;;
19095;SDS011;9680;52.520;13.332;2022-10-29T05:08:35;12.52;;;4.75;;
19095;SDS011;9680;52.520;13.332;2022-10-29T05:11:01;13.00;;;4.97;;
19095;SDS011;9680;52.520;13.332;2022-10-29T05:13:28;18.23;;;4.95;;
19095;SDS011;9680;52.520;13.332;2022-10-29T05:15:54;19.48;;;5.20;;
19095;SDS011;9680;52.520;13.332;2022-10-29T05:18:20;15.13;;;5.43;;
19095;SDS011;9680;52.520;13.332;2022-10-29T05:20:46;20.48;;;5.40;;
19095;SDS011;9680;52.520;13.332;2022-10-29T05:23:12;11.70;;;5.15;;
19095;SDS011;9680;52.520;13.332;2022-10-29T05:25:38;16.75;;;5.57;;
19095;SDS011;9680;52.520;13.332;2022-10-29T05:28:12;14.70;;;5.43;;
19095;SDS011;9680;52.520;13.332;2022-10-29T05:30:39;15.05;;;5.22;;
19095;SDS011;9680;52.520;13.332;2022-10-29T05:33:08;23.90;;;5.47;;
19095;SDS011;9680;52.520;13.332;2022-10-29T05:35:34;17.10;;;5.18;;
19095;SDS011;9680;52.520;13.332;2022-10-29T05:38:00;21.63;;;5.40;;
19095;SDS011;9680;52.520;13.332;2022-10-29T05:40:27;17.88;;;5.43;;
19095;SDS011;9680;52.520;13.332;2022-10-29T05:42:52;12.98;;;5.28;;
19095;SDS011;9680;52.520;13.332;2022-10-29T05:45:18;22.42;;;5.57;;
19095;SDS011;9680;52.520;13.332;2022-10-29T05:47:43;26.08;;;6.00;;
19095;SDS011;9680;52.520;13.332;2022-10-29T05:50:09;30.85;;;8.02;;
19095;SDS011;9680;52.520;13.332;2022-10-29T05:52:36;16.45;;;5.70;;
19095;SDS011;9680;52.520;13.332;2022-10-29T05:55:01;24.88;;;5.65;;
19095;SDS011;9680;52.520;13.332;2022-10-29T05:57:27;14.75;;;5.28;;
19095;SDS011;9680;52.520;13.332;2022-10-29T05:59:53;12.65;;;5.18;;
19095;SDS011;9680;52.520;13.332;2022-10-29T06:02:19;17.52;;;5.72;;
19095;SDS011;9680;52.520;13.332;2022-10-29T06:04:44;18.58;;;5.95;;
19095;SDS011;9680;52.520;13.332;2022-10-29T06:07:10;17.67;;;5.38;;
19095;SDS011;9680;52.520;13.332;2022-10-29T06:09:35;15.68;;;5.53;;
19095;SDS011;9680;52.520;13.332;2022-10-29T06:12:01;11.38;;;5.15;;
19095;SDS011;9680;52.520;13.332;2022-10-29T06:14:26;13.05;;;5.70;;
19095;SDS011;9680;52.520;13.332;2022-10-29T06:16:51;22.17;;;6.20;;
19095;SDS011;9680;52.520;13.332;2022-10-29T06:19:17;15.27;;;5.75;;
19095;SDS011;9680;52.520;13.332;2022-10-29T06:21:42;17.88;;;5.80;;
19095;SDS011;9680;52.520;13.332;2022-10-29T06:24:08;16.63;;;5.03;;
19095;SDS011;9680;52.520;13.332;2022-10-29T06:26:34;15.90;;;5.18;;
19095;SDS011;9680;52.520;13.332;2022-10-29T06:29:01;22.50;;;6.32;;
19095;SDS011;9680;52.520;13.332;2022-10-29T06:31:27;14.77;;;5.30;;
19095;SDS011;9680;52.520;13.332;2022-10-29T06:33:53;24.88;;;5.68;;
19095;SDS011;9680;52.520;13.332;2022-10-29T06:36:19;17.40;;;5.63;;
19095;SDS011;9680;52.520;13.332;2022-10-29T06:38:45;17.17;;;5.22;;
19095;SDS011;9680;52.520;13.332;2022-10-29T06:41:11;18.35;;;6.05;;
19095;SDS011;9680;52.520;13.332;2022-10-29T06:43:36;17.08;;;5.18;;
19095;SDS011;9680;52.520;13.332;2022-10-29T06:46:02;13.40;;;5.32;;
19095;SDS011;9680;52.520;13.332;2022-10-29T06:48:27;24.27;;;6.18;;
19095;SDS011;9680;52.520;13.332;2022-10-29T06:50:53;14.57;;;5.00;;
19095;SDS011;9680;52.520;13.332;2022-10-29T06:53:18;19.05;;;6.15;;
19095;SDS011;9680;52.520;13.332;2022-10-29T06:55:44;16.27;;;5.65;;
19095;SDS011;9680;52.520;13.332;2022-10-29T06:58:10;16.98;;;5.13;;
19095;SDS011;9680;52.520;13.332;2022-10-29T07:00:38;21.38;;;6.00;;
19095;SDS011;9680;52.520;13.332;2022-10-29T07:03:04;16.92;;;5.22;;
19095;SDS011;9680;52.520;13.332;2022-10-29T07:05:30;14.50;;;5.10;;
19095;SDS011;9680;52.520;13.332;2022-10-29T07:07:57;22.13;;;4.88;;
19095;SDS011;9680;52.520;13.332;2022-10-29T07:10:25;22.40;;;6.80;;
19095;SDS011;9680;52.520;13.332;2022-10-29T07:12:52;20.85;;;6.15;;
19095;SDS011;9680;52.520;13.332;2022-10-29T07:15:18;16.23;;;6.30;;
19095;SDS011;9680;52.520;13.332;2022-10-29T07:18:05;13.00;;;5.20;;
19095;SDS011;9680;52.520;13.332;2022-10-29T07:20:31;21.33;;;6.03;;
19095;SDS011;9680;52.520;13.332;2022-10-29T07:22:58;20.85;;;5.78;;
19095;SDS011;9680;52.520;13.332;2022-10-29T07:25:26;17.67;;;6.28;;
19095;SDS011;9680;52.520;13.332;2022-10-29T07:27:52;16.27;;;5.10;;
19095;SDS011;9680;52.520;13.332;2022-10-29T07:30:18;20.63;;;6.30;;
19095;SDS011;9680;52.520;13.332;2022-10-29T07:32:44;10.63;;;5.50;;
19095;SDS011;9680;52.520;13.332;2022-10-29T07:35:10;17.27;;;5.63;;
19095;SDS011;9680;52.520;13.332;2022-10-29T07:37:36;12.25;;;4.97;;
19095;SDS011;9680;52.520;13.332;2022-10-29T07:40:02;17.15;;;5.35;;
19095;SDS011;9680;52.520;13.332;2022-10-29T07:42:28;16.55;;;5.70;;
19095;SDS011;9680;52.520;13.332;2022-10-29T07:44:54;18.23;;;5.57;;
19095;SDS011;9680;52.520;13.332;2022-10-29T07:47:20;20.05;;;5.53;;
19095;SDS011;9680;52.520;13.332;2022-10-29T07:49:46;17.80;;;5.25;;
19095;SDS011;9680;52.520;13.332;2022-10-29T07:52:11;17.77;;;5.90;;
19095;SDS011;9680;52.520;13.332;2022-10-29T07:54:37;16.30;;;5.78;;
19095;SDS011;9680;52.520;13.332;2022-10-29T07:57:02;21.15;;;5.95;;
19095;SDS011;9680;52.520;13.332;2022-10-29T07:59:28;12.68;;;5.03;;
19095;SDS011;9680;52.520;13.332;2022-10-29T08:01:54;18.83;;;5.35;;
19095;SDS011;9680;52.520;13.332;2022-10-29T08:04:19;14.15;;;5.40;;
19095;SDS011;9680;52.520;13.332;2022-10-29T08:06:45;15.55;;;6.28;;
19095;SDS011;9680;52.520;13.332;2022-10-29T08:09:10;15.00;;;5.22;;
19095;SDS011;9680;52.520;13.332;2022-10-29T08:11:36;17.17;;;5.63;;
19095;SDS011;9680;52.520;13.332;2022-10-29T08:14:02;16.08;;;5.88;;
19095;SDS011;9680;52.520;13.332;2022-10-29T08:16:29;21.15;;;5.72;;
19095;SDS011;9680;52.520;13.332;2022-10-29T08:18:55;11.70;;;4.93;;
19095;SDS011;9680;52.520;13.332;2022-10-29T08:21:20;14.00;;;5.20;;
19095;SDS011;9680;52.520;13.332;2022-10-29T08:23:46;17.40;;;4.95;;
19095;SDS011;9680;52.520;13.332;2022-10-29T08:26:12;19.40;;;5.47;;
19095;SDS011;9680;52.520;13.332;2022-10-29T08:28:37;15.48;;;5.05;;
19095;SDS011;9680;52.520;13.332;2022-10-29T08:31:03;14.63;;;5.20;;
19095;SDS011;9680;52.520;13.332;2022-10-29T08:33:28;15.90;;;5.40;;
19095;SDS011;9680;52.520;13.332;2022-10-29T08:35:54;20.60;;;5.50;;
19095;SDS011;9680;52.520;13.332;2022-10-29T08:38:20;12.15;;;5.10;;
19095;SDS011;9680;52.520;13.332;2022-10-29T08:41:00;15.10;;;5.13;;
19095;SDS011;9680;52.520;13.332;2022-10-29T08:46:14;15.88;;;5.07;;
19095;SDS011;9680;52.520;13.332;2022-10-29T08:48:46;16.85;;;5.65;;
19095;SDS011;9680;52.520;13.332;2022-10-29T08:51:29;16.45;;;5.57;;
19095;SDS011;9680;52.520;13.332;2022-10-29T08:54:00;15.30;;;5.68;;
19095;SDS011;9680;52.520;13.332;2022-10-29T08:56:27;12.95;;;4.90;;
19095;SDS011;9680;52.520;13.332;2022-10-29T08:59:07;19.23;;;5.60;;
19095;SDS011;9680;52.520;13.332;2022-10-29T09:01:38;17.48;;;6.32;;
19095;SDS011;9680;52.520;13.332;2022-10-29T09:04:11;18.85;;;5.63;;
19095;SDS011;9680;52.520;13.332;2022-10-29T09:18:08;11.63;;;5.40;;
19095;SDS011;9680;52.520;13.332;2022-10-29T09:26:13;19.50;;;5.32;;
19095;SDS011;9680;52.520;13.332;2022-10-29T09:31:59;13.90;;;4.57;;
19095;SDS011;9680;52.520;13.332;2022-10-29T09:34:48;16.30;;;4.57;;
19095;SDS011;9680;52.520;13.332;2022-10-29T09:37:16;13.18;;;4.50;;
19095;SDS011;9680;52.520;13.332;2022-10-29T09:39:46;16.80;;;5.07;;
19095;SDS011;9680;52.520;13.332;2022-10-29T09:42:14;21.42;;;5.68;;
19095;SDS011;9680;52.520;13.332;2022-10-29T09:44:57;18.30;;;5.10;;
19095;SDS011;9680;52.520;13.332;2022-10-29T09:52:48;18.50;;;5.55;;
19095;SDS011;9680;52.520;13.332;2022-10-29T09:55:19;10.15;;;4.90;;
19095;SDS011;9680;52.520;13.332;2022-10-29T09:57:48;19.55;;;5.28;;
19095;SDS011;9680;52.520;13.332;2022-10-29T10:02:58;17.85;;;5.75;;
19095;SDS011;9680;52.520;13.332;2022-10-29T10:05:29;13.45;;;5.07;;
19095;SDS011;9680;52.520;13.332;2022-10-29T10:10:38;15.60;;;4.47;;
19095;SDS011;9680;52.520;13.332;2022-10-29T10:13:16;14.63;;;4.40;;
19095;SDS011;9680;52.520;13.332;2022-10-29T10:15:47;11.30;;;4.28;;
19095;SDS011;9680;52.520;13.332;2022-10-29T10:18:20;11.52;;;4.10;;
19095;SDS011;9680;52.520;13.332;2022-10-29T10:23:38;16.40;;;4.85;;
19095;SDS011;9680;52.520;13.332;2022-10-29T10:26:25;12.70;;;4.82;;
19095;SDS011;9680;52.520;13.332;2022-10-29T10:39:34;18.83;;;4.80;;
19095;SDS011;9680;52.520;13.332;2022-10-29T10:42:05;13.25;;;4.47;;
19095;SDS011;9680;52.520;13.332;2022-10-29T10:44:45;17.05;;;4.47;;
19095;SDS011;9680;52.520;13.332;2022-10-29T10:47:16;18.92;;;5.07;;
19095;SDS011;9680;52.520;13.332;2022-10-29T10:49:44;18.27;;;5.00;;
19095;SDS011;9680;52.520;13.332;2022-10-29T10:52:14;14.70;;;5.85;;
19095;SDS011;9680;52.520;13.332;2022-10-29T10:54:44;12.10;;;4.72;;
19095;SDS011;9680;52.520;13.332;2022-10-29T10:57:31;15.20;;;4.40;;
19095;SDS011;9680;52.520;13.332;2022-10-29T11:02:49;13.45;;;4.22;;
19095;SDS011;9680;52.520;13.332;2022-10-29T11:05:18;13.80;;;5.15;;
19095;SDS011;9680;52.520;13.332;2022-10-29T11:07:54;18.42;;;5.88;;
19095;SDS011;9680;52.520;13.332;2022-10-29T11:10:23;11.15;;;4.20;;
19095;SDS011;9680;52.520;13.332;2022-10-29T11:12:55;14.60;;;4.15;;
19095;SDS011;9680;52.520;13.332;2022-10-29T11:18:03;16.65;;;5.00;;
19095;SDS011;9680;52.520;13.332;2022-10-29T11:20:42;14.10;;;4.40;;
19095;SDS011;9680;52.520;13.332;2022-10-29T11:25:51;10.48;;;4.35;;
19095;SDS011;9680;52.520;13.332;2022-10-29T11:31:31;12.10;;;4.38;;
19095;SDS011;9680;52.520;13.332;2022-10-29T11:34:11;12.07;;;4.32;;
19095;SDS011;9680;52.520;13.332;2022-10-29T11:36:46;14.57;;;4.25;;
19095;SDS011;9680;52.520;13.332;2022-10-29T11:40:09;15.80;;;4.63;;
19095;SDS011;9680;52.520;13.332;2022-10-29T11:42:17;15.30;;;4.65;;
19095;SDS011;9680;52.520;13.332;2022-10-29T11:44:42;16.52;;;4.32;;
19095;SDS011;9680;52.520;13.332;2022-10-29T11:52:45;13.02;;;4.80;;
19095;SDS011;9680;52.520;13.332;2022-10-29T11:58:33;12.98;;;4.85;;
19095;SDS011;9680;52.520;13.332;2022-10-29T12:03:23;14.95;;;4.70;;
19095;SDS011;9680;52.520;13.332;2022-10-29T12:06:07;12.15;;;4.25;;
19095;SDS011;9680;52.520;13.332;2022-10-29T12:11:53;22.23;;;4.72;;
19095;SDS011;9680;52.520;13.332;2022-10-29T12:17:04;18.17;;;5.00;;
19095;SDS011;9680;52.520;13.332;2022-10-29T12:30:20;15.20;;;4.93;;
19095;SDS011;9680;52.520;13.332;2022-10-29T12:35:23;13.13;;;4.47;;
19095;SDS011;9680;52.520;13.332;2022-10-29T12:37:59;18.90;;;4.90;;
19095;SDS011;9680;52.520;13.332;2022-10-29T12:40:27;18.75;;;4.80;;
19095;SDS011;9680;52.520;13.332;2022-10-29T12:42:58;13.02;;;4.80;;
19095;SDS011;9680;52.520;13.332;2022-10-29T12:45:35;16.02;;;4.85;;
19095;SDS011;9680;52.520;13.332;2022-10-29T12:51:39;17.88;;;4.65;;
19095;SDS011;9680;52.520;13.332;2022-10-29T12:54:32;18.08;;;4.70;;
19095;SDS011;9680;52.520;13.332;2022-10-29T12:59:36;13.75;;;4.50;;
19095;SDS011;9680;52.520;13.332;2022-10-29T13:07:33;13.68;;;5.07;;
19095;SDS011;9680;52.520;13.332;2022-10-29T13:15:42;16.38;;;4.57;;
19095;SDS011;9680;52.520;13.332;2022-10-29T13:18:27;17.10;;;5.07;;
19095;SDS011;9680;52.520;13.332;2022-10-29T13:20:55;16.42;;;4.80;;
19095;SDS011;9680;52.520;13.332;2022-10-29T13:25:50;13.20;;;4.78;;
19095;SDS011;9680;52.520;13.332;2022-10-29T13:30:45;17.27;;;5.30;;
19095;SDS011;9680;52.520;13.332;2022-10-29T13:35:58;13.68;;;4.95;;
19095;SDS011;9680;52.520;13.332;2022-10-29T13:49:19;12.90;;;4.60;;
19095;SDS011;9680;52.520;13.332;2022-10-29T13:51:58;15.82;;;4.93;;
19095;SDS011;9680;52.520;13.332;2022-10-29T13:54:37;12.75;;;4.68;;
19095;SDS011;9680;52.520;13.332;2022-10-29T13:59:53;13.90;;;4.90;;
19095;SDS011;9680;52.520;13.332;2022-10-29T14:02:31;15.70;;;4.93;;
19095;SDS011;9680;52.520;13.332;2022-10-29T14:07:49;15.98;;;5.30;;
19095;SDS011;9680;52.520;13.332;2022-10-29T14:10:34;18.50;;;6.10;;
19095;SDS011;9680;52.520;13.332;2022-10-29T14:15:38;13.25;;;5.22;;
19095;SDS011;9680;52.520;13.332;2022-10-29T14:21:11;12.45;;;5.13;;
19095;SDS011;9680;52.520;13.332;2022-10-29T14:23:38;16.52;;;5.72;;
19095;SDS011;9680;52.520;13.332;2022-10-29T14:26:11;15.05;;;5.20;;
19095;SDS011;9680;52.520;13.332;2022-10-29T14:28:40;11.18;;;5.35;;
19095;SDS011;9680;52.520;13.332;2022-10-29T14:33:36;18.25;;;5.63;;
19095;SDS011;9680;52.520;13.332;2022-10-29T14:38:59;17.85;;;6.05;;
19095;SDS011;9680;52.520;13.332;2022-10-29T14:41:44;18.67;;;5.72;;
19095;SDS011;9680;52.520;13.332;2022-10-29T14:44:18;14.25;;;5.20;;
19095;SDS011;9680;52.520;13.332;2022-10-29T14:46:51;16.33;;;5.15;;
19095;SDS011;9680;52.520;13.332;2022-10-29T14:49:25;12.75;;;6.10;;
19095;SDS011;9680;52.520;13.332;2022-10-29T14:51:54;13.98;;;5.65;;
19095;SDS011;9680;52.520;13.332;2022-10-29T14:54:33;16.98;;;5.45;;
19095;SDS011;9680;52.520;13.332;2022-10-29T14:57:08;16.38;;;5.50;;
19095;SDS011;9680;52.520;13.332;2022-10-29T14:59:42;16.73;;;6.03;;
19095;SDS011;9680;52.520;13.332;2022-10-29T15:02:21;22.10;;;5.95;;
19095;SDS011;9680;52.520;13.332;2022-10-29T15:04:57;15.50;;;5.40;;
19095;SDS011;9680;52.520;13.332;2022-10-29T15:12:34;15.43;;;5.70;;
19095;SDS011;9680;52.520;13.332;2022-10-29T15:23:03;13.93;;;5.95;;
19095;SDS011;9680;52.520;13.332;2022-10-29T15:25:30;21.73;;;6.20;;
19095;SDS011;9680;52.520;13.332;2022-10-29T15:27:58;14.77;;;6.13;;
19095;SDS011;9680;52.520;13.332;2022-10-29T15:30:32;16.33;;;6.30;;
19095;SDS011;9680;52.520;13.332;2022-10-29T15:32:59;16.55;;;6.53;;
19095;SDS011;9680;52.520;13.332;2022-10-29T15:35:49;22.85;;;6.55;;
19095;SDS011;9680;52.520;13.332;2022-10-29T15:43:33;14.63;;;6.00;;
19095;SDS011;9680;52.520;13.332;2022-10-29T15:46:19;16.92;;;5.88;;
19095;SDS011;9680;52.520;13.332;2022-10-29T15:48:48;14.88;;;6.03;;
19095;SDS011;9680;52.520;13.332;2022-10-29T15:51:14;16.75;;;6.68;;
19095;SDS011;9680;52.520;13.332;2022-10-29T15:53:40;25.30;;;6.47;;
19095;SDS011;9680;52.520;13.332;2022-10-29T15:56:09;15.52;;;6.13;;
19095;SDS011;9680;52.520;13.332;2022-10-29T15:58:36;16.90;;;6.07;;
19095;SDS011;9680;52.520;13.332;2022-10-29T16:01:02;15.95;;;6.50;;
19095;SDS011;9680;52.520;13.332;2022-10-29T16:03:28;17.73;;;6.63;;
19095;SDS011;9680;52.520;13.332;2022-10-29T16:05:54;22.95;;;7.30;;
19095;SDS011;9680;52.520;13.332;2022-10-29T16:10:51;17.65;;;6.55;;
19095;SDS011;9680;52.520;13.332;2022-10-29T16:13:18;20.77;;;6.88;;
19095;SDS011;9680;52.520;13.332;2022-10-29T16:15:44;19.17;;;6.75;;
19095;SDS011;9680;52.520;13.332;2022-10-29T16:18:09;15.63;;;6.65;;
19095;SDS011;9680;52.520;13.332;2022-10-29T16:20:35;21.33;;;7.05;;
19095;SDS011;9680;52.520;13.332;2022-10-29T16:23:00;16.13;;;7.05;;
19095;SDS011;9680;52.520;13.332;2022-10-29T16:25:26;21.02;;;6.72;;
19095;SDS011;9680;52.520;13.332;2022-10-29T16:27:53;18.45;;;6.60;;
19095;SDS011;9680;52.520;13.332;2022-10-29T16:30:19;16.17;;;6.57;;
19095;SDS011;9680;52.520;13.332;2022-10-29T16:32:46;25.80;;;7.10;;
19095;SDS011;9680;52.520;13.332;2022-10-29T16:35:16;20.52;;;7.10;;
19095;SDS011;9680;52.520;13.332;2022-10-29T16:37:49;16.20;;;6.97;;
19095;SDS011;9680;52.520;13.332;2022-10-29T16:40:15;18.08;;;7.05;;
19095;SDS011;9680;52.520;13.332;2022-10-29T16:42:42;22.10;;;7.15;;
19095;SDS011;9680;52.520;13.332;2022-10-29T16:45:18;18.02;;;7.30;;
19095;SDS011;9680;52.520;13.332;2022-10-29T16:47:48;21.00;;;7.28;;
19095;SDS011;9680;52.520;13.332;2022-10-29T16:50:21;18.40;;;6.85;;
19095;SDS011;9680;52.520;13.332;2022-10-29T16:53:06;16.02;;;6.78;;
19095;SDS011;9680;52.520;13.332;2022-10-29T16:55:34;20.85;;;7.15;;
19095;SDS011;9680;52.520;13.332;2022-10-29T16:58:01;16.05;;;7.15;;
19095;SDS011;9680;52.520;13.332;2022-10-29T17:00:27;23.50;;;7.18;;
19095;SDS011;9680;52.520;13.332;2022-10-29T17:03:00;17.40;;;7.35;;
19095;SDS011;9680;52.520;13.332;2022-10-29T17:05:26;21.77;;;8.23;;
19095;SDS011;9680;52.520;13.332;2022-10-29T17:07:52;27.75;;;7.90;;
19095;SDS011;9680;52.520;13.332;2022-10-29T17:10:18;17.58;;;7.30;;
19095;SDS011;9680;52.520;13.332;2022-10-29T17:12:44;22.48;;;7.82;;
19095;SDS011;9680;52.520;13.332;2022-10-29T17:15:09;20.75;;;7.82;;
19095;SDS011;9680;52.520;13.332;2022-10-29T17:17:35;16.92;;;7.70;;
19095;SDS011;9680;52.520;13.332;2022-10-29T17:20:00;20.75;;;8.10;;
19095;SDS011;9680;52.520;13.332;2022-10-29T17:22:26;18.02;;;7.25;;
19095;SDS011;9680;52.520;13.332;2022-10-29T17:24:51;24.85;;;7.60;;
19095;SDS011;9680;52.520;13.332;2022-10-29T17:27:17;20.13;;;7.47;;
19095;SDS011;9680;52.520;13.332;2022-10-29T17:29:42;26.42;;;8.75;;
19095;SDS011;9680;52.520;13.332;2022-10-29T17:32:08;18.83;;;8.25;;
19095;SDS011;9680;52.520;13.332;2022-10-29T17:34:34;17.98;;;8.73;;
19095;SDS011;9680;52.520;13.332;2022-10-29T17:36:59;19.38;;;8.20;;
19095;SDS011;9680;52.520;13.332;2022-10-29T17:39:25;25.02;;;8.80;;
19095;SDS011;9680;52.520;13.332;2022-10-29T17:41:50;18.63;;;8.32;;
19095;SDS011;9680;52.520;13.332;2022-10-29T17:44:16;21.98;;;8.38;;
19095;SDS011;9680;52.520;13.332;2022-10-29T17:46:41;23.33;;;9.10;;
19095;SDS011;9680;52.520;13.332;2022-10-29T17:49:07;19.25;;;8.10;;
19095;SDS011;9680;52.520;13.332;2022-10-29T17:51:32;22.52;;;9.32;;
19095;SDS011;9680;52.520;13.332;2022-10-29T17:53:58;17.67;;;8.30;;